This is the latest recevied weather packets stored in our database for station/object YREN. If no packets are shown the sender has not sent any weather packets the latest 10 day(s).
| Time | Temp. | Humidity | Pressure | Rain* | Wind** | Luminosity | Snow |
|---|---|---|---|---|---|---|---|
| 1788330004 | 17.22° C | 68% | 1013.5 hPa | 0 mm | - | - | - |
| 1788329104 | 17.22° C | 68% | 1013.5 hPa | 0 mm | - | - | - |
| 1788328204 | 17.78° C | 66% | 1013.7 hPa | 0 mm | - | - | - |
| 1788325504 | 16.67° C | 77% | 1014 hPa | 0 mm | - | - | - |
| 1788298503 | 8.89° C | 98% | 1017.1 hPa | 0 mm | - | - | - |
| 1788297604 | 8.33° C | 98% | 1016.8 hPa | 0 mm | - | - | - |
| 1788294003 | 8.89° C | 98% | 1016.3 hPa | 0 mm | - | - | - |
| 1788293103 | 8.89° C | 98% | 1016 hPa | 0 mm | - | - | - |
| 1788292204 | 8.89° C | 98% | 1016 hPa | 0 mm | - | - | - |
| 1788287704 | 8.33° C | 98% | 1015.9 hPa | 0 mm | - | - | - |
| 1788286804 | 7.78° C | 97% | 1015.9 hPa | 0 mm | - | - | - |
| 1788284104 | 8.33° C | 97% | 1016 hPa | 0 mm | - | - | - |
| 1788283204 | 9.44° C | 97% | 1015.9 hPa | 0 mm | - | - | - |
| 1788282304 | 9.44° C | 97% | 1015.9 hPa | 0 mm | - | - | - |
| 1788280503 | 10° C | 97% | 1015.9 hPa | 0 mm | - | - | - |
| 1788279603 | 11.67° C | 98% | 1016.1 hPa | 0 mm | - | - | - |
| 1788278703 | 11.67° C | 98% | 1016.1 hPa | 0 mm | - | - | - |
| 1788277804 | 10.56° C | 96% | 1016.1 hPa | 0 mm | - | - | - |
| 1788276904 | 10.56° C | 96% | 1016.1 hPa | 0 mm | - | - | - |
| 1788276004 | 10.56° C | 95% | 1015.9 hPa | 0 mm | - | - | - |
| 1788273303 | 12.22° C | 94% | 1016.1 hPa | 0 mm | - | - | - |
| 1788272403 | 12.22° C | 94% | 1016.1 hPa | 0 mm | - | - | - |
| 1788271503 | 12.22° C | 94% | 1016.1 hPa | 0 mm | - | - | - |
| 1788269703 | 13.89° C | 94% | 1016 hPa | 0 mm | - | - | - |
| 1788268804 | 14.44° C | 95% | 1016 hPa | 0 mm | - | - | - |
* Rain latest hour (hover to see other rain measurements)
** Current wind speed in m/s (hover to see current wind gust speed)